Aviation Digital Data Service (ADDS)

Output produced by METARs form (2232 UTC 30 March 2017)
found at http://www.aviationweather.gov/adds/metars/
 
TAF TBPB 301100Z 3012/3112 09011KT 9999 SCT018